sensor_id;sensor_type;location;lat;lon;timestamp;temperature;humidity
35246;DHT22;21379;50.962;6.960;2022-09-09T00:00:53;18.00;99.90
35246;DHT22;21379;50.962;6.960;2022-09-09T00:03:25;18.00;99.90
35246;DHT22;21379;50.962;6.960;2022-09-09T00:05:59;18.00;99.90
35246;DHT22;21379;50.962;6.960;2022-09-09T00:08:41;18.00;99.90
35246;DHT22;21379;50.962;6.960;2022-09-09T00:11:12;17.90;99.90
35246;DHT22;21379;50.962;6.960;2022-09-09T00:13:47;17.90;99.90
35246;DHT22;21379;50.962;6.960;2022-09-09T00:16:19;17.80;99.90
35246;DHT22;21379;50.962;6.960;2022-09-09T00:18:55;17.80;99.90
35246;DHT22;21379;50.962;6.960;2022-09-09T00:21:28;17.70;99.90
35246;DHT22;21379;50.962;6.960;2022-09-09T00:23:58;17.70;99.90
35246;DHT22;21379;50.962;6.960;2022-09-09T00:26:31;17.70;99.90
35246;DHT22;21379;50.962;6.960;2022-09-09T00:29:05;17.60;99.90
35246;DHT22;21379;50.962;6.960;2022-09-09T00:31:36;17.60;99.90
35246;DHT22;21379;50.962;6.960;2022-09-09T00:34:12;17.70;99.90
35246;DHT22;21379;50.962;6.960;2022-09-09T00:36:40;17.70;99.90
35246;DHT22;21379;50.962;6.960;2022-09-09T00:39:15;17.70;99.90
35246;DHT22;21379;50.962;6.960;2022-09-09T00:41:55;17.70;99.90
35246;DHT22;21379;50.962;6.960;2022-09-09T00:44:30;17.70;99.90
35246;DHT22;21379;50.962;6.960;2022-09-09T00:47:09;17.70;99.90
35246;DHT22;21379;50.962;6.960;2022-09-09T00:49:46;17.70;99.90
35246;DHT22;21379;50.962;6.960;2022-09-09T00:52:26;17.70;99.90
35246;DHT22;21379;50.962;6.960;2022-09-09T00:55:05;17.70;99.90
35246;DHT22;21379;50.962;6.960;2022-09-09T00:57:34;17.60;99.90
35246;DHT22;21379;50.962;6.960;2022-09-09T01:00:21;17.60;99.90
35246;DHT22;21379;50.962;6.960;2022-09-09T01:03:03;17.70;99.90
35246;DHT22;21379;50.962;6.960;2022-09-09T01:05:37;17.60;99.90
35246;DHT22;21379;50.962;6.960;2022-09-09T01:08:15;17.70;99.90
35246;DHT22;21379;50.962;6.960;2022-09-09T01:10:50;17.70;99.90
35246;DHT22;21379;50.962;6.960;2022-09-09T01:13:23;17.60;99.90
35246;DHT22;21379;50.962;6.960;2022-09-09T01:15:53;17.60;99.90
35246;DHT22;21379;50.962;6.960;2022-09-09T01:18:22;17.60;99.90
35246;DHT22;21379;50.962;6.960;2022-09-09T01:20:57;17.60;99.90
35246;DHT22;21379;50.962;6.960;2022-09-09T01:23:43;17.60;99.90
35246;DHT22;21379;50.962;6.960;2022-09-09T01:26:18;17.60;99.90
35246;DHT22;21379;50.962;6.960;2022-09-09T01:28:48;17.60;99.90
35246;DHT22;21379;50.962;6.960;2022-09-09T01:31:18;17.50;99.90
35246;DHT22;21379;50.962;6.960;2022-09-09T01:33:46;17.50;99.90
35246;DHT22;21379;50.962;6.960;2022-09-09T01:36:17;17.40;99.90
35246;DHT22;21379;50.962;6.960;2022-09-09T01:38:46;17.40;99.90
35246;DHT22;21379;50.962;6.960;2022-09-09T01:41:14;17.30;99.90
35246;DHT22;21379;50.962;6.960;2022-09-09T01:43:41;17.30;99.90
35246;DHT22;21379;50.962;6.960;2022-09-09T01:46:08;17.20;99.90
35246;DHT22;21379;50.962;6.960;2022-09-09T01:48:36;17.20;99.90
35246;DHT22;21379;50.962;6.960;2022-09-09T01:51:03;17.20;99.90
35246;DHT22;21379;50.962;6.960;2022-09-09T01:53:30;17.20;99.90
35246;DHT22;21379;50.962;6.960;2022-09-09T01:56:04;17.20;99.90
35246;DHT22;21379;50.962;6.960;2022-09-09T01:58:44;17.20;99.90
35246;DHT22;21379;50.962;6.960;2022-09-09T02:01:21;17.20;99.90
35246;DHT22;21379;50.962;6.960;2022-09-09T02:03:52;17.30;99.90
35246;DHT22;21379;50.962;6.960;2022-09-09T02:06:27;17.30;99.90
35246;DHT22;21379;50.962;6.960;2022-09-09T02:08:56;17.30;99.90
35246;DHT22;21379;50.962;6.960;2022-09-09T02:11:26;17.30;99.90
35246;DHT22;21379;50.962;6.960;2022-09-09T02:13:57;17.30;99.90
35246;DHT22;21379;50.962;6.960;2022-09-09T02:16:28;17.40;99.90
35246;DHT22;21379;50.962;6.960;2022-09-09T02:19:01;17.30;99.90
35246;DHT22;21379;50.962;6.960;2022-09-09T02:21:31;17.30;99.90
35246;DHT22;21379;50.962;6.960;2022-09-09T02:24:02;17.30;99.90
35246;DHT22;21379;50.962;6.960;2022-09-09T02:26:31;17.30;99.90
35246;DHT22;21379;50.962;6.960;2022-09-09T02:29:03;17.30;99.90
35246;DHT22;21379;50.962;6.960;2022-09-09T02:31:31;17.30;99.90
35246;DHT22;21379;50.962;6.960;2022-09-09T02:34:01;17.30;99.90
35246;DHT22;21379;50.962;6.960;2022-09-09T02:36:32;17.30;99.90
35246;DHT22;21379;50.962;6.960;2022-09-09T02:39:01;17.30;99.90
35246;DHT22;21379;50.962;6.960;2022-09-09T02:41:32;17.40;99.90
35246;DHT22;21379;50.962;6.960;2022-09-09T02:44:01;17.40;99.90
35246;DHT22;21379;50.962;6.960;2022-09-09T02:46:40;17.40;99.90
35246;DHT22;21379;50.962;6.960;2022-09-09T02:49:10;17.40;99.90
35246;DHT22;21379;50.962;6.960;2022-09-09T02:51:44;17.40;99.90
35246;DHT22;21379;50.962;6.960;2022-09-09T02:54:22;17.40;99.90
35246;DHT22;21379;50.962;6.960;2022-09-09T02:56:52;17.40;99.90
35246;DHT22;21379;50.962;6.960;2022-09-09T02:59:22;17.40;99.90
35246;DHT22;21379;50.962;6.960;2022-09-09T03:01:49;17.40;99.90
35246;DHT22;21379;50.962;6.960;2022-09-09T03:04:19;17.30;99.90
35246;DHT22;21379;50.962;6.960;2022-09-09T03:06:46;17.30;99.90
35246;DHT22;21379;50.962;6.960;2022-09-09T03:09:13;17.30;99.90
35246;DHT22;21379;50.962;6.960;2022-09-09T03:11:39;17.30;99.90
35246;DHT22;21379;50.962;6.960;2022-09-09T03:14:06;17.30;99.90
35246;DHT22;21379;50.962;6.960;2022-09-09T03:16:35;17.30;99.90
35246;DHT22;21379;50.962;6.960;2022-09-09T03:19:02;17.30;99.90
35246;DHT22;21379;50.962;6.960;2022-09-09T03:21:28;17.30;99.90
35246;DHT22;21379;50.962;6.960;2022-09-09T03:23:55;17.30;99.90
35246;DHT22;21379;50.962;6.960;2022-09-09T03:26:22;17.30;99.90
35246;DHT22;21379;50.962;6.960;2022-09-09T03:28:50;17.30;99.90
35246;DHT22;21379;50.962;6.960;2022-09-09T03:31:17;17.30;99.90
35246;DHT22;21379;50.962;6.960;2022-09-09T03:33:46;17.30;99.90
35246;DHT22;21379;50.962;6.960;2022-09-09T03:36:13;17.30;99.90
35246;DHT22;21379;50.962;6.960;2022-09-09T03:38:40;17.30;99.90
35246;DHT22;21379;50.962;6.960;2022-09-09T03:41:07;17.30;99.90
35246;DHT22;21379;50.962;6.960;2022-09-09T03:43:34;17.30;99.90
35246;DHT22;21379;50.962;6.960;2022-09-09T03:46:02;17.20;99.90
35246;DHT22;21379;50.962;6.960;2022-09-09T03:48:29;17.30;99.90
35246;DHT22;21379;50.962;6.960;2022-09-09T03:50:57;17.30;99.90
35246;DHT22;21379;50.962;6.960;2022-09-09T03:53:26;17.30;99.90
35246;DHT22;21379;50.962;6.960;2022-09-09T03:55:55;17.30;99.90
35246;DHT22;21379;50.962;6.960;2022-09-09T03:58:25;17.30;99.90
35246;DHT22;21379;50.962;6.960;2022-09-09T04:00:54;17.30;99.90
35246;DHT22;21379;50.962;6.960;2022-09-09T04:03:22;17.30;99.90
35246;DHT22;21379;50.962;6.960;2022-09-09T04:05:50;17.30;99.90
35246;DHT22;21379;50.962;6.960;2022-09-09T04:08:18;17.30;99.90
35246;DHT22;21379;50.962;6.960;2022-09-09T04:10:45;17.30;99.90
35246;DHT22;21379;50.962;6.960;2022-09-09T04:13:13;17.30;99.90
35246;DHT22;21379;50.962;6.960;2022-09-09T04:15:42;17.30;99.90
35246;DHT22;21379;50.962;6.960;2022-09-09T04:18:09;17.30;99.90
35246;DHT22;21379;50.962;6.960;2022-09-09T04:20:37;17.30;99.90
35246;DHT22;21379;50.962;6.960;2022-09-09T04:23:04;17.30;99.90
35246;DHT22;21379;50.962;6.960;2022-09-09T04:25:33;17.30;99.90
35246;DHT22;21379;50.962;6.960;2022-09-09T04:27:59;17.20;99.90
35246;DHT22;21379;50.962;6.960;2022-09-09T04:30:26;17.20;99.90
35246;DHT22;21379;50.962;6.960;2022-09-09T04:32:53;17.20;99.90
35246;DHT22;21379;50.962;6.960;2022-09-09T04:35:20;17.30;99.90
35246;DHT22;21379;50.962;6.960;2022-09-09T04:37:47;17.30;99.90
35246;DHT22;21379;50.962;6.960;2022-09-09T04:40:15;17.20;99.90
35246;DHT22;21379;50.962;6.960;2022-09-09T04:42:43;17.20;99.90
35246;DHT22;21379;50.962;6.960;2022-09-09T04:45:10;17.20;99.90
35246;DHT22;21379;50.962;6.960;2022-09-09T04:47:39;17.20;99.90
35246;DHT22;21379;50.962;6.960;2022-09-09T04:50:07;17.20;99.90
35246;DHT22;21379;50.962;6.960;2022-09-09T04:52:34;17.20;99.90
35246;DHT22;21379;50.962;6.960;2022-09-09T04:55:02;17.20;99.90
35246;DHT22;21379;50.962;6.960;2022-09-09T04:57:29;17.20;99.90
35246;DHT22;21379;50.962;6.960;2022-09-09T04:59:58;17.20;99.90
35246;DHT22;21379;50.962;6.960;2022-09-09T05:02:25;17.20;99.90
35246;DHT22;21379;50.962;6.960;2022-09-09T05:04:52;17.20;99.90
35246;DHT22;21379;50.962;6.960;2022-09-09T05:07:19;17.30;99.90
35246;DHT22;21379;50.962;6.960;2022-09-09T05:09:46;17.30;99.90
35246;DHT22;21379;50.962;6.960;2022-09-09T05:12:14;17.30;99.90
35246;DHT22;21379;50.962;6.960;2022-09-09T05:14:42;17.40;99.90
35246;DHT22;21379;50.962;6.960;2022-09-09T05:17:10;17.30;99.90
35246;DHT22;21379;50.962;6.960;2022-09-09T05:19:38;17.40;99.90
35246;DHT22;21379;50.962;6.960;2022-09-09T05:22:04;17.40;99.90
35246;DHT22;21379;50.962;6.960;2022-09-09T05:24:31;17.30;99.90
35246;DHT22;21379;50.962;6.960;2022-09-09T05:26:59;17.30;99.90
35246;DHT22;21379;50.962;6.960;2022-09-09T05:29:27;17.40;99.90
35246;DHT22;21379;50.962;6.960;2022-09-09T05:31:54;17.30;99.90
35246;DHT22;21379;50.962;6.960;2022-09-09T05:34:23;17.30;99.90
35246;DHT22;21379;50.962;6.960;2022-09-09T05:36:49;17.30;99.90
35246;DHT22;21379;50.962;6.960;2022-09-09T05:39:17;17.30;99.90
35246;DHT22;21379;50.962;6.960;2022-09-09T05:41:44;17.30;99.90
35246;DHT22;21379;50.962;6.960;2022-09-09T05:44:11;17.30;99.90
35246;DHT22;21379;50.962;6.960;2022-09-09T05:46:39;17.30;99.90
35246;DHT22;21379;50.962;6.960;2022-09-09T05:49:05;17.30;99.90
35246;DHT22;21379;50.962;6.960;2022-09-09T05:51:35;17.30;99.90
35246;DHT22;21379;50.962;6.960;2022-09-09T05:54:02;17.30;99.90
35246;DHT22;21379;50.962;6.960;2022-09-09T05:56:29;17.30;99.90
35246;DHT22;21379;50.962;6.960;2022-09-09T05:58:58;17.30;99.90
35246;DHT22;21379;50.962;6.960;2022-09-09T06:01:27;17.30;99.90
35246;DHT22;21379;50.962;6.960;2022-09-09T06:03:54;17.30;99.90
35246;DHT22;21379;50.962;6.960;2022-09-09T06:06:23;17.30;99.90
35246;DHT22;21379;50.962;6.960;2022-09-09T06:08:54;17.40;99.90
35246;DHT22;21379;50.962;6.960;2022-09-09T06:11:23;17.50;99.90
35246;DHT22;21379;50.962;6.960;2022-09-09T06:13:50;17.50;99.90
35246;DHT22;21379;50.962;6.960;2022-09-09T06:16:21;17.60;99.90
35246;DHT22;21379;50.962;6.960;2022-09-09T06:18:49;17.60;99.90
35246;DHT22;21379;50.962;6.960;2022-09-09T06:21:19;17.60;99.90
35246;DHT22;21379;50.962;6.960;2022-09-09T06:23:47;17.60;99.90
35246;DHT22;21379;50.962;6.960;2022-09-09T06:26:18;17.60;99.90
35246;DHT22;21379;50.962;6.960;2022-09-09T06:28:45;17.60;99.90
35246;DHT22;21379;50.962;6.960;2022-09-09T06:31:16;17.60;99.90
35246;DHT22;21379;50.962;6.960;2022-09-09T06:33:47;17.60;99.90
35246;DHT22;21379;50.962;6.960;2022-09-09T06:36:16;17.60;99.90
35246;DHT22;21379;50.962;6.960;2022-09-09T06:38:44;17.70;99.90
35246;DHT22;21379;50.962;6.960;2022-09-09T06:41:12;17.70;99.90
35246;DHT22;21379;50.962;6.960;2022-09-09T06:43:40;17.70;99.90
35246;DHT22;21379;50.962;6.960;2022-09-09T06:46:10;17.70;99.90
35246;DHT22;21379;50.962;6.960;2022-09-09T06:48:39;17.80;99.90
35246;DHT22;21379;50.962;6.960;2022-09-09T06:51:08;18.00;99.90
35246;DHT22;21379;50.962;6.960;2022-09-09T06:53:37;18.00;99.90
35246;DHT22;21379;50.962;6.960;2022-09-09T06:56:19;18.00;99.90
35246;DHT22;21379;50.962;6.960;2022-09-09T06:58:49;18.00;99.90
35246;DHT22;21379;50.962;6.960;2022-09-09T07:01:18;18.20;99.90
35246;DHT22;21379;50.962;6.960;2022-09-09T07:03:47;18.40;99.90
35246;DHT22;21379;50.962;6.960;2022-09-09T07:06:17;18.70;99.90
35246;DHT22;21379;50.962;6.960;2022-09-09T07:08:49;18.90;99.90
35246;DHT22;21379;50.962;6.960;2022-09-09T07:11:18;19.20;99.90
35246;DHT22;21379;50.962;6.960;2022-09-09T07:13:48;19.30;99.90
35246;DHT22;21379;50.962;6.960;2022-09-09T07:16:16;19.10;99.90
35246;DHT22;21379;50.962;6.960;2022-09-09T07:18:44;19.00;99.90
35246;DHT22;21379;50.962;6.960;2022-09-09T07:21:12;18.80;99.90
35246;DHT22;21379;50.962;6.960;2022-09-09T07:23:41;18.90;99.90
35246;DHT22;21379;50.962;6.960;2022-09-09T07:26:09;19.10;99.90
35246;DHT22;21379;50.962;6.960;2022-09-09T07:28:36;19.10;99.90
35246;DHT22;21379;50.962;6.960;2022-09-09T07:31:06;19.10;99.90
35246;DHT22;21379;50.962;6.960;2022-09-09T07:33:33;19.60;99.90
35246;DHT22;21379;50.962;6.960;2022-09-09T07:36:05;20.10;99.90
35246;DHT22;21379;50.962;6.960;2022-09-09T07:38:37;20.40;99.90
35246;DHT22;21379;50.962;6.960;2022-09-09T07:41:06;21.10;99.90
35246;DHT22;21379;50.962;6.960;2022-09-09T07:43:34;21.50;99.90
35246;DHT22;21379;50.962;6.960;2022-09-09T07:46:01;21.80;99.90
35246;DHT22;21379;50.962;6.960;2022-09-09T07:48:30;21.50;99.90
35246;DHT22;21379;50.962;6.960;2022-09-09T07:51:05;21.10;99.90
35246;DHT22;21379;50.962;6.960;2022-09-09T07:53:33;21.30;99.90
35246;DHT22;21379;50.962;6.960;2022-09-09T07:56:03;21.80;99.90
35246;DHT22;21379;50.962;6.960;2022-09-09T07:58:30;21.50;99.90
35246;DHT22;21379;50.962;6.960;2022-09-09T08:00:57;21.20;99.90
35246;DHT22;21379;50.962;6.960;2022-09-09T08:03:24;20.90;99.90
35246;DHT22;21379;50.962;6.960;2022-09-09T08:06:00;20.70;99.90
35246;DHT22;21379;50.962;6.960;2022-09-09T08:08:28;20.50;99.90
35246;DHT22;21379;50.962;6.960;2022-09-09T08:11:04;20.30;99.90
35246;DHT22;21379;50.962;6.960;2022-09-09T08:13:33;20.20;99.90
35246;DHT22;21379;50.962;6.960;2022-09-09T08:16:07;20.00;99.90
35246;DHT22;21379;50.962;6.960;2022-09-09T08:18:35;19.90;99.90
35246;DHT22;21379;50.962;6.960;2022-09-09T08:21:08;19.70;99.90
35246;DHT22;21379;50.962;6.960;2022-09-09T08:23:38;19.60;99.90
35246;DHT22;21379;50.962;6.960;2022-09-09T08:26:06;19.60;99.90
35246;DHT22;21379;50.962;6.960;2022-09-09T08:28:34;19.50;99.90
35246;DHT22;21379;50.962;6.960;2022-09-09T08:31:09;19.60;99.90
35246;DHT22;21379;50.962;6.960;2022-09-09T08:33:36;19.60;99.90
35246;DHT22;21379;50.962;6.960;2022-09-09T08:36:05;19.70;99.90
35246;DHT22;21379;50.962;6.960;2022-09-09T08:38:34;19.80;99.90
35246;DHT22;21379;50.962;6.960;2022-09-09T08:41:12;19.90;99.90
35246;DHT22;21379;50.962;6.960;2022-09-09T08:43:44;20.20;99.90
35246;DHT22;21379;50.962;6.960;2022-09-09T08:46:17;21.10;99.90
35246;DHT22;21379;50.962;6.960;2022-09-09T08:48:54;21.30;99.90
35246;DHT22;21379;50.962;6.960;2022-09-09T08:51:27;21.20;99.90
35246;DHT22;21379;50.962;6.960;2022-09-09T08:53:59;21.20;99.90
35246;DHT22;21379;50.962;6.960;2022-09-09T08:56:33;20.80;99.90
35246;DHT22;21379;50.962;6.960;2022-09-09T08:59:02;20.50;99.90
35246;DHT22;21379;50.962;6.960;2022-09-09T09:01:43;20.40;99.90
35246;DHT22;21379;50.962;6.960;2022-09-09T09:04:22;20.30;99.90
35246;DHT22;21379;50.962;6.960;2022-09-09T09:07:01;20.50;99.90
35246;DHT22;21379;50.962;6.960;2022-09-09T09:09:37;20.40;99.90
35246;DHT22;21379;50.962;6.960;2022-09-09T09:12:16;20.60;99.90
35246;DHT22;21379;50.962;6.960;2022-09-09T09:14:43;20.80;99.90
35246;DHT22;21379;50.962;6.960;2022-09-09T09:17:14;20.80;99.90
35246;DHT22;21379;50.962;6.960;2022-09-09T09:19:43;20.70;99.90
35246;DHT22;21379;50.962;6.960;2022-09-09T09:22:17;20.60;99.90
35246;DHT22;21379;50.962;6.960;2022-09-09T09:24:51;20.70;99.90
35246;DHT22;21379;50.962;6.960;2022-09-09T09:27:26;20.70;99.90
35246;DHT22;21379;50.962;6.960;2022-09-09T09:29:57;20.60;99.90
35246;DHT22;21379;50.962;6.960;2022-09-09T09:32:28;20.30;99.90
35246;DHT22;21379;50.962;6.960;2022-09-09T09:34:58;20.10;99.90
35246;DHT22;21379;50.962;6.960;2022-09-09T09:37:29;20.00;99.90
35246;DHT22;21379;50.962;6.960;2022-09-09T09:40:08;20.00;99.90
35246;DHT22;21379;50.962;6.960;2022-09-09T09:42:36;20.00;99.90
35246;DHT22;21379;50.962;6.960;2022-09-09T09:45:16;20.00;99.90
35246;DHT22;21379;50.962;6.960;2022-09-09T09:47:45;20.10;99.90
35246;DHT22;21379;50.962;6.960;2022-09-09T09:50:19;20.20;99.90
35246;DHT22;21379;50.962;6.960;2022-09-09T09:52:54;20.30;99.90
35246;DHT22;21379;50.962;6.960;2022-09-09T09:55:24;20.30;99.90
35246;DHT22;21379;50.962;6.960;2022-09-09T09:57:51;20.20;99.90
35246;DHT22;21379;50.962;6.960;2022-09-09T10:00:21;20.30;99.90
35246;DHT22;21379;50.962;6.960;2022-09-09T10:02:49;20.40;99.90
35246;DHT22;21379;50.962;6.960;2022-09-09T10:05:19;20.40;99.90
35246;DHT22;21379;50.962;6.960;2022-09-09T10:07:59;20.50;99.90
35246;DHT22;21379;50.962;6.960;2022-09-09T10:10:42;20.60;99.90
35246;DHT22;21379;50.962;6.960;2022-09-09T10:13:15;20.70;99.90
35246;DHT22;21379;50.962;6.960;2022-09-09T10:15:50;20.60;99.90
35246;DHT22;21379;50.962;6.960;2022-09-09T10:18:30;20.50;99.90
35246;DHT22;21379;50.962;6.960;2022-09-09T10:21:08;20.40;99.90
35246;DHT22;21379;50.962;6.960;2022-09-09T10:24:01;20.40;99.90
35246;DHT22;21379;50.962;6.960;2022-09-09T10:26:40;20.40;99.90
35246;DHT22;21379;50.962;6.960;2022-09-09T10:29:32;20.30;99.90
35246;DHT22;21379;50.962;6.960;2022-09-09T10:32:13;20.20;99.90
35246;DHT22;21379;50.962;6.960;2022-09-09T10:34:54;20.20;99.90
35246;DHT22;21379;50.962;6.960;2022-09-09T10:37:33;20.10;99.90
35246;DHT22;21379;50.962;6.960;2022-09-09T10:40:19;20.20;99.90
35246;DHT22;21379;50.962;6.960;2022-09-09T10:42:51;20.40;99.90
35246;DHT22;21379;50.962;6.960;2022-09-09T10:45:25;20.50;99.90
35246;DHT22;21379;50.962;6.960;2022-09-09T10:48:24;20.60;99.90
35246;DHT22;21379;50.962;6.960;2022-09-09T10:50:59;20.80;99.90
35246;DHT22;21379;50.962;6.960;2022-09-09T10:53:36;20.90;99.90
35246;DHT22;21379;50.962;6.960;2022-09-09T10:56:08;21.10;99.90
35246;DHT22;21379;50.962;6.960;2022-09-09T10:58:42;21.20;99.90
35246;DHT22;21379;50.962;6.960;2022-09-09T11:01:16;21.40;99.90
35246;DHT22;21379;50.962;6.960;2022-09-09T11:03:48;21.50;99.90
35246;DHT22;21379;50.962;6.960;2022-09-09T11:06:19;22.10;99.90
35246;DHT22;21379;50.962;6.960;2022-09-09T11:08:47;23.10;99.90
35246;DHT22;21379;50.962;6.960;2022-09-09T11:11:19;23.40;99.90
35246;DHT22;21379;50.962;6.960;2022-09-09T11:13:55;23.40;99.90
35246;DHT22;21379;50.962;6.960;2022-09-09T11:16:28;22.80;99.90
35246;DHT22;21379;50.962;6.960;2022-09-09T11:19:00;22.40;99.90
35246;DHT22;21379;50.962;6.960;2022-09-09T11:21:31;22.20;99.90
35246;DHT22;21379;50.962;6.960;2022-09-09T11:24:02;22.10;99.90
35246;DHT22;21379;50.962;6.960;2022-09-09T11:26:33;21.80;99.90
35246;DHT22;21379;50.962;6.960;2022-09-09T11:29:21;21.60;99.90
35246;DHT22;21379;50.962;6.960;2022-09-09T11:32:02;21.40;99.90
35246;DHT22;21379;50.962;6.960;2022-09-09T11:34:39;21.30;99.90
35246;DHT22;21379;50.962;6.960;2022-09-09T11:37:45;21.20;99.90
35246;DHT22;21379;50.962;6.960;2022-09-09T11:40:19;21.20;99.90
35246;DHT22;21379;50.962;6.960;2022-09-09T11:42:46;21.20;99.90
35246;DHT22;21379;50.962;6.960;2022-09-09T11:45:25;21.20;99.90
35246;DHT22;21379;50.962;6.960;2022-09-09T11:47:55;21.10;99.90
35246;DHT22;21379;50.962;6.960;2022-09-09T11:50:31;21.10;99.90
35246;DHT22;21379;50.962;6.960;2022-09-09T11:53:18;21.20;99.90
35246;DHT22;21379;50.962;6.960;2022-09-09T11:55:48;21.20;99.90
35246;DHT22;21379;50.962;6.960;2022-09-09T11:58:17;21.20;99.90
35246;DHT22;21379;50.962;6.960;2022-09-09T12:00:47;21.30;99.90
35246;DHT22;21379;50.962;6.960;2022-09-09T12:03:34;21.30;99.90
35246;DHT22;21379;50.962;6.960;2022-09-09T12:06:11;21.30;99.90
35246;DHT22;21379;50.962;6.960;2022-09-09T12:08:41;21.20;99.90
35246;DHT22;21379;50.962;6.960;2022-09-09T12:11:11;21.10;99.90
35246;DHT22;21379;50.962;6.960;2022-09-09T12:13:37;21.00;99.90
35246;DHT22;21379;50.962;6.960;2022-09-09T12:16:31;20.90;99.90
35246;DHT22;21379;50.962;6.960;2022-09-09T12:19:13;20.80;99.90
35246;DHT22;21379;50.962;6.960;2022-09-09T12:21:46;20.70;99.90
35246;DHT22;21379;50.962;6.960;2022-09-09T12:24:21;20.80;99.90
35246;DHT22;21379;50.962;6.960;2022-09-09T12:26:53;20.90;99.90
35246;DHT22;21379;50.962;6.960;2022-09-09T12:29:26;21.10;99.90
35246;DHT22;21379;50.962;6.960;2022-09-09T12:32:00;21.10;99.90
35246;DHT22;21379;50.962;6.960;2022-09-09T12:34:34;21.20;99.90
35246;DHT22;21379;50.962;6.960;2022-09-09T12:37:06;21.30;99.90
35246;DHT22;21379;50.962;6.960;2022-09-09T12:39:43;21.30;99.90
35246;DHT22;21379;50.962;6.960;2022-09-09T12:42:18;21.30;99.90
35246;DHT22;21379;50.962;6.960;2022-09-09T12:44:54;21.20;99.90
35246;DHT22;21379;50.962;6.960;2022-09-09T12:47:27;21.00;99.90
35246;DHT22;21379;50.962;6.960;2022-09-09T12:49:55;20.90;99.90
35246;DHT22;21379;50.962;6.960;2022-09-09T12:52:27;20.80;99.90
35246;DHT22;21379;50.962;6.960;2022-09-09T12:54:56;20.80;99.90
35246;DHT22;21379;50.962;6.960;2022-09-09T12:57:24;20.90;99.90
35246;DHT22;21379;50.962;6.960;2022-09-09T12:59:51;20.90;99.90
35246;DHT22;21379;50.962;6.960;2022-09-09T13:02:22;21.20;99.90
35246;DHT22;21379;50.962;6.960;2022-09-09T13:04:49;21.60;99.90
35246;DHT22;21379;50.962;6.960;2022-09-09T13:07:17;22.00;99.90
35246;DHT22;21379;50.962;6.960;2022-09-09T13:09:46;22.30;99.90
35246;DHT22;21379;50.962;6.960;2022-09-09T13:12:17;21.90;99.90
35246;DHT22;21379;50.962;6.960;2022-09-09T13:14:47;21.50;99.90
35246;DHT22;21379;50.962;6.960;2022-09-09T13:17:23;21.20;99.90
35246;DHT22;21379;50.962;6.960;2022-09-09T13:19:51;21.10;99.90
35246;DHT22;21379;50.962;6.960;2022-09-09T13:22:22;21.00;99.90
35246;DHT22;21379;50.962;6.960;2022-09-09T13:25:00;20.90;99.90
35246;DHT22;21379;50.962;6.960;2022-09-09T13:27:30;20.90;99.90
35246;DHT22;21379;50.962;6.960;2022-09-09T13:29:57;20.80;99.90
35246;DHT22;21379;50.962;6.960;2022-09-09T13:32:26;21.10;99.90
35246;DHT22;21379;50.962;6.960;2022-09-09T13:34:55;21.10;99.90
35246;DHT22;21379;50.962;6.960;2022-09-09T13:37:26;21.20;99.90
35246;DHT22;21379;50.962;6.960;2022-09-09T13:39:55;21.40;99.90
35246;DHT22;21379;50.962;6.960;2022-09-09T13:42:24;21.50;99.90
35246;DHT22;21379;50.962;6.960;2022-09-09T13:44:52;21.60;99.90
35246;DHT22;21379;50.962;6.960;2022-09-09T13:47:20;21.60;99.90
35246;DHT22;21379;50.962;6.960;2022-09-09T13:49:49;21.60;99.90
35246;DHT22;21379;50.962;6.960;2022-09-09T13:52:17;21.60;99.90
35246;DHT22;21379;50.962;6.960;2022-09-09T13:54:47;22.30;99.90
35246;DHT22;21379;50.962;6.960;2022-09-09T13:57:16;23.00;99.90
35246;DHT22;21379;50.962;6.960;2022-09-09T13:59:44;23.30;99.90
35246;DHT22;21379;50.962;6.960;2022-09-09T14:02:11;23.70;99.90
35246;DHT22;21379;50.962;6.960;2022-09-09T14:04:39;24.10;99.90
35246;DHT22;21379;50.962;6.960;2022-09-09T14:07:11;23.90;99.90
35246;DHT22;21379;50.962;6.960;2022-09-09T14:09:39;23.20;99.90
35246;DHT22;21379;50.962;6.960;2022-09-09T14:12:09;22.80;99.90
35246;DHT22;21379;50.962;6.960;2022-09-09T14:14:36;22.40;99.90
35246;DHT22;21379;50.962;6.960;2022-09-09T14:17:03;21.90;99.90
35246;DHT22;21379;50.962;6.960;2022-09-09T14:19:30;21.70;99.90
35246;DHT22;21379;50.962;6.960;2022-09-09T14:21:57;21.50;99.90
35246;DHT22;21379;50.962;6.960;2022-09-09T14:24:26;21.20;99.90
35246;DHT22;21379;50.962;6.960;2022-09-09T14:26:53;21.00;99.90
35246;DHT22;21379;50.962;6.960;2022-09-09T14:29:20;20.80;99.90
35246;DHT22;21379;50.962;6.960;2022-09-09T14:31:47;20.70;99.90
35246;DHT22;21379;50.962;6.960;2022-09-09T14:34:15;20.30;99.90
35246;DHT22;21379;50.962;6.960;2022-09-09T14:36:41;19.90;99.90
35246;DHT22;21379;50.962;6.960;2022-09-09T14:39:10;19.60;99.90
35246;DHT22;21379;50.962;6.960;2022-09-09T14:41:38;19.30;99.90
35246;DHT22;21379;50.962;6.960;2022-09-09T14:44:05;18.90;99.90
35246;DHT22;21379;50.962;6.960;2022-09-09T14:46:32;18.60;99.90
35246;DHT22;21379;50.962;6.960;2022-09-09T14:48:59;18.30;99.90
35246;DHT22;21379;50.962;6.960;2022-09-09T14:51:26;18.10;99.90
35246;DHT22;21379;50.962;6.960;2022-09-09T14:53:55;17.90;99.90
35246;DHT22;21379;50.962;6.960;2022-09-09T14:56:24;17.90;99.90
35246;DHT22;21379;50.962;6.960;2022-09-09T14:58:55;17.90;99.90
35246;DHT22;21379;50.962;6.960;2022-09-09T15:01:23;18.00;99.90
35246;DHT22;21379;50.962;6.960;2022-09-09T15:03:54;18.00;99.90
35246;DHT22;21379;50.962;6.960;2022-09-09T15:06:22;18.10;99.90
35246;DHT22;21379;50.962;6.960;2022-09-09T15:08:51;18.10;99.90
35246;DHT22;21379;50.962;6.960;2022-09-09T15:11:19;18.30;99.90
35246;DHT22;21379;50.962;6.960;2022-09-09T15:13:50;18.40;99.90
35246;DHT22;21379;50.962;6.960;2022-09-09T15:16:19;18.60;99.90
35246;DHT22;21379;50.962;6.960;2022-09-09T15:18:50;18.70;99.90
35246;DHT22;21379;50.962;6.960;2022-09-09T15:21:18;18.80;99.90
35246;DHT22;21379;50.962;6.960;2022-09-09T15:23:46;18.80;99.90
35246;DHT22;21379;50.962;6.960;2022-09-09T15:26:14;18.80;99.90
35246;DHT22;21379;50.962;6.960;2022-09-09T15:28:43;18.90;99.90
35246;DHT22;21379;50.962;6.960;2022-09-09T15:31:12;19.00;99.90
35246;DHT22;21379;50.962;6.960;2022-09-09T15:33:41;19.00;99.90
35246;DHT22;21379;50.962;6.960;2022-09-09T15:36:16;18.90;99.90
35246;DHT22;21379;50.962;6.960;2022-09-09T15:38:43;18.90;99.90
35246;DHT22;21379;50.962;6.960;2022-09-09T15:41:10;18.90;99.90
35246;DHT22;21379;50.962;6.960;2022-09-09T15:43:38;18.80;99.90
35246;DHT22;21379;50.962;6.960;2022-09-09T15:46:24;18.90;99.90
35246;DHT22;21379;50.962;6.960;2022-09-09T15:48:55;18.90;99.90
35246;DHT22;21379;50.962;6.960;2022-09-09T15:51:22;18.90;99.90
35246;DHT22;21379;50.962;6.960;2022-09-09T15:53:55;18.90;99.90